sensor_id;sensor_type;location;lat;lon;timestamp;pressure;altitude;pressure_sealevel;temperature;humidity
51439;BME280;38816;51.142;-0.974;2023-05-23T00:00:19;100989.44;;;10.42;66.92
51439;BME280;38816;51.142;-0.974;2023-05-23T00:02:45;101011.03;;;10.49;67.41
51439;BME280;38816;51.142;-0.974;2023-05-23T00:05:11;101009.22;;;10.45;68.29
51439;BME280;38816;51.142;-0.974;2023-05-23T00:07:36;100996.31;;;10.43;69.28
51439;BME280;38816;51.142;-0.974;2023-05-23T00:10:02;100998.84;;;10.42;70.29
51439;BME280;38816;51.142;-0.974;2023-05-23T00:12:27;101000.44;;;10.38;71.34
51439;BME280;38816;51.142;-0.974;2023-05-23T00:14:53;100998.66;;;10.35;71.61
51439;BME280;38816;51.142;-0.974;2023-05-23T00:17:19;100990.91;;;10.34;71.71
51439;BME280;38816;51.142;-0.974;2023-05-23T00:19:45;100993.34;;;10.29;72.57
51439;BME280;38816;51.142;-0.974;2023-05-23T00:22:11;100995.59;;;10.20;73.56
51439;BME280;38816;51.142;-0.974;2023-05-23T00:24:37;100991.28;;;10.19;74.59
51439;BME280;38816;51.142;-0.974;2023-05-23T00:27:02;100984.94;;;10.08;75.38
51439;BME280;38816;51.142;-0.974;2023-05-23T00:29:28;100991.19;;;10.16;76.75
51439;BME280;38816;51.142;-0.974;2023-05-23T00:31:53;100996.16;;;10.10;77.88
51439;BME280;38816;51.142;-0.974;2023-05-23T00:34:19;100981.34;;;10.01;78.82
51439;BME280;38816;51.142;-0.974;2023-05-23T00:36:44;100983.06;;;10.02;79.71
51439;BME280;38816;51.142;-0.974;2023-05-23T00:39:14;100995.00;;;10.00;80.97
51439;BME280;38816;51.142;-0.974;2023-05-23T00:41:49;100994.91;;;9.97;81.61
51439;BME280;38816;51.142;-0.974;2023-05-23T00:44:15;100996.50;;;9.94;82.54
51439;BME280;38816;51.142;-0.974;2023-05-23T00:46:42;100990.75;;;10.01;82.60
51439;BME280;38816;51.142;-0.974;2023-05-23T00:49:10;100985.41;;;9.95;82.83
51439;BME280;38816;51.142;-0.974;2023-05-23T00:51:36;100991.63;;;10.01;82.97
51439;BME280;38816;51.142;-0.974;2023-05-23T00:54:03;100981.88;;;9.91;83.07
51439;BME280;38816;51.142;-0.974;2023-05-23T00:56:29;100993.06;;;9.93;82.86
51439;BME280;38816;51.142;-0.974;2023-05-23T00:58:55;100989.63;;;9.93;82.21
51439;BME280;38816;51.142;-0.974;2023-05-23T01:01:20;100985.97;;;9.86;81.86
51439;BME280;38816;51.142;-0.974;2023-05-23T01:03:46;100985.94;;;9.84;81.56
51439;BME280;38816;51.142;-0.974;2023-05-23T01:06:13;100974.63;;;9.78;81.04
51439;BME280;38816;51.142;-0.974;2023-05-23T01:08:38;100990.19;;;9.82;80.75
51439;BME280;38816;51.142;-0.974;2023-05-23T01:11:11;100989.94;;;9.75;80.74
51439;BME280;38816;51.142;-0.974;2023-05-23T01:13:46;100992.38;;;9.72;80.91
51439;BME280;38816;51.142;-0.974;2023-05-23T01:16:29;100993.19;;;9.69;80.90
51439;BME280;38816;51.142;-0.974;2023-05-23T01:21:52;100980.84;;;9.59;80.95
51439;BME280;38816;51.142;-0.974;2023-05-23T01:24:35;100990.41;;;9.63;81.03
51439;BME280;38816;51.142;-0.974;2023-05-23T01:27:15;100990.25;;;9.58;81.28
51439;BME280;38816;51.142;-0.974;2023-05-23T01:29:47;100979.06;;;9.56;81.40
51439;BME280;38816;51.142;-0.974;2023-05-23T01:32:16;100983.22;;;9.53;81.16
51439;BME280;38816;51.142;-0.974;2023-05-23T01:34:41;100986.50;;;9.49;81.30
51439;BME280;38816;51.142;-0.974;2023-05-23T01:37:11;100976.97;;;9.45;81.14
51439;BME280;38816;51.142;-0.974;2023-05-23T01:39:38;100987.94;;;9.41;81.32
51439;BME280;38816;51.142;-0.974;2023-05-23T01:42:04;101004.28;;;9.43;81.77
51439;BME280;38816;51.142;-0.974;2023-05-23T01:44:34;101002.56;;;9.42;81.82
51439;BME280;38816;51.142;-0.974;2023-05-23T01:47:02;100995.00;;;9.46;81.29
51439;BME280;38816;51.142;-0.974;2023-05-23T01:49:28;100996.47;;;9.39;81.64
51439;BME280;38816;51.142;-0.974;2023-05-23T01:51:55;101017.00;;;9.39;82.03
51439;BME280;38816;51.142;-0.974;2023-05-23T01:54:20;101006.47;;;9.32;82.39
51439;BME280;38816;51.142;-0.974;2023-05-23T01:56:47;101010.75;;;9.31;82.92
51439;BME280;38816;51.142;-0.974;2023-05-23T01:59:12;101013.31;;;9.31;83.31
51439;BME280;38816;51.142;-0.974;2023-05-23T02:01:38;101022.81;;;9.34;83.59
51439;BME280;38816;51.142;-0.974;2023-05-23T02:04:03;101003.75;;;9.27;83.59
51439;BME280;38816;51.142;-0.974;2023-05-23T02:06:29;101017.63;;;9.32;83.90
51439;BME280;38816;51.142;-0.974;2023-05-23T02:08:56;101022.69;;;9.31;84.40
51439;BME280;38816;51.142;-0.974;2023-05-23T02:11:21;101016.44;;;9.23;84.83
51439;BME280;38816;51.142;-0.974;2023-05-23T02:13:47;101018.13;;;9.22;85.27
51439;BME280;38816;51.142;-0.974;2023-05-23T02:16:12;101028.50;;;9.25;86.28
51439;BME280;38816;51.142;-0.974;2023-05-23T02:18:38;101024.13;;;9.23;87.02
51439;BME280;38816;51.142;-0.974;2023-05-23T02:21:06;101030.94;;;9.22;87.92
51439;BME280;38816;51.142;-0.974;2023-05-23T02:23:32;101029.31;;;9.24;88.04
51439;BME280;38816;51.142;-0.974;2023-05-23T02:25:57;101023.25;;;9.22;88.47
51439;BME280;38816;51.142;-0.974;2023-05-23T02:28:22;101029.47;;;9.29;88.36
51439;BME280;38816;51.142;-0.974;2023-05-23T02:30:48;101034.53;;;9.27;88.15
51439;BME280;38816;51.142;-0.974;2023-05-23T02:33:13;101025.81;;;9.22;88.97
51439;BME280;38816;51.142;-0.974;2023-05-23T02:35:40;101023.09;;;9.18;89.96
51439;BME280;38816;51.142;-0.974;2023-05-23T02:38:20;101031.56;;;9.15;90.21
51439;BME280;38816;51.142;-0.974;2023-05-23T02:40:45;101021.78;;;9.05;90.69
51439;BME280;38816;51.142;-0.974;2023-05-23T02:43:11;101017.44;;;9.02;91.38
51439;BME280;38816;51.142;-0.974;2023-05-23T02:45:36;101024.97;;;8.98;92.07
51439;BME280;38816;51.142;-0.974;2023-05-23T02:48:02;101037.75;;;8.96;92.04
51439;BME280;38816;51.142;-0.974;2023-05-23T02:50:27;101026.28;;;8.86;92.65
51439;BME280;38816;51.142;-0.974;2023-05-23T02:52:52;101037.31;;;8.84;92.52
51439;BME280;38816;51.142;-0.974;2023-05-23T02:55:18;101024.91;;;8.72;92.79
51439;BME280;38816;51.142;-0.974;2023-05-23T02:57:43;101032.50;;;8.69;93.48
51439;BME280;38816;51.142;-0.974;2023-05-23T03:00:09;101034.13;;;8.67;94.91
51439;BME280;38816;51.142;-0.974;2023-05-23T03:02:35;101038.59;;;8.73;96.54
51439;BME280;38816;51.142;-0.974;2023-05-23T03:05:01;101033.53;;;8.74;96.91
51439;BME280;38816;51.142;-0.974;2023-05-23T03:07:26;101042.09;;;8.75;97.38
51439;BME280;38816;51.142;-0.974;2023-05-23T03:09:51;101032.50;;;8.69;97.91
51439;BME280;38816;51.142;-0.974;2023-05-23T03:12:17;101040.44;;;8.77;99.28
51439;BME280;38816;51.142;-0.974;2023-05-23T03:14:42;101041.31;;;8.77;100.00
51439;BME280;38816;51.142;-0.974;2023-05-23T03:17:07;101035.28;;;8.75;100.00
51439;BME280;38816;51.142;-0.974;2023-05-23T03:19:33;101033.59;;;8.76;100.00
51439;BME280;38816;51.142;-0.974;2023-05-23T03:21:58;101048.31;;;8.81;100.00
51439;BME280;38816;51.142;-0.974;2023-05-23T03:24:23;101028.47;;;8.76;100.00
51439;BME280;38816;51.142;-0.974;2023-05-23T03:26:49;101026.75;;;8.76;100.00
51439;BME280;38816;51.142;-0.974;2023-05-23T03:29:14;101034.75;;;8.84;100.00
51439;BME280;38816;51.142;-0.974;2023-05-23T03:31:40;101041.03;;;8.92;100.00
51439;BME280;38816;51.142;-0.974;2023-05-23T03:34:05;101035.94;;;8.94;100.00
51439;BME280;38816;51.142;-0.974;2023-05-23T03:36:30;101033.00;;;8.83;100.00
51439;BME280;38816;51.142;-0.974;2023-05-23T03:38:58;101021.53;;;8.73;100.00
51439;BME280;38816;51.142;-0.974;2023-05-23T03:41:23;101036.91;;;8.73;100.00
51439;BME280;38816;51.142;-0.974;2023-05-23T03:43:49;101045.31;;;8.69;100.00
51439;BME280;38816;51.142;-0.974;2023-05-23T03:46:14;101037.38;;;8.63;100.00
51439;BME280;38816;51.142;-0.974;2023-05-23T03:48:40;101034.53;;;8.55;100.00
51439;BME280;38816;51.142;-0.974;2023-05-23T03:51:05;101054.97;;;8.54;100.00
51439;BME280;38816;51.142;-0.974;2023-05-23T03:53:31;101033.09;;;8.40;100.00
51439;BME280;38816;51.142;-0.974;2023-05-23T03:55:56;101051.25;;;8.46;100.00
51439;BME280;38816;51.142;-0.974;2023-05-23T03:58:21;101048.78;;;8.47;100.00
51439;BME280;38816;51.142;-0.974;2023-05-23T04:04:02;101026.16;;;8.37;100.00
51439;BME280;38816;51.142;-0.974;2023-05-23T04:06:28;101050.16;;;8.39;100.00
51439;BME280;38816;51.142;-0.974;2023-05-23T04:08:56;101041.28;;;8.31;100.00
51439;BME280;38816;51.142;-0.974;2023-05-23T04:11:21;101052.44;;;8.33;100.00
51439;BME280;38816;51.142;-0.974;2023-05-23T04:13:48;101048.66;;;8.23;100.00
51439;BME280;38816;51.142;-0.974;2023-05-23T04:16:13;101053.91;;;8.26;100.00
51439;BME280;38816;51.142;-0.974;2023-05-23T04:18:38;101055.53;;;8.24;100.00
51439;BME280;38816;51.142;-0.974;2023-05-23T04:21:04;101054.72;;;8.25;100.00
51439;BME280;38816;51.142;-0.974;2023-05-23T04:23:29;101056.34;;;8.23;100.00
51439;BME280;38816;51.142;-0.974;2023-05-23T04:25:55;101062.09;;;8.18;100.00
51439;BME280;38816;51.142;-0.974;2023-05-23T04:28:22;101066.41;;;8.19;100.00
51439;BME280;38816;51.142;-0.974;2023-05-23T04:30:47;101060.38;;;8.17;100.00
51439;BME280;38816;51.142;-0.974;2023-05-23T04:33:13;101069.03;;;8.20;100.00
51439;BME280;38816;51.142;-0.974;2023-05-23T04:35:39;101059.50;;;8.16;100.00
51439;BME280;38816;51.142;-0.974;2023-05-23T04:38:05;101051.72;;;8.15;100.00
51439;BME280;38816;51.142;-0.974;2023-05-23T04:40:30;101056.16;;;8.19;100.00
51439;BME280;38816;51.142;-0.974;2023-05-23T04:42:56;101077.81;;;8.27;100.00
51439;BME280;38816;51.142;-0.974;2023-05-23T04:45:22;101075.31;;;8.28;100.00
51439;BME280;38816;51.142;-0.974;2023-05-23T04:47:47;101085.56;;;8.28;100.00
51439;BME280;38816;51.142;-0.974;2023-05-23T04:50:13;101079.47;;;8.25;100.00
51439;BME280;38816;51.142;-0.974;2023-05-23T04:52:39;101078.97;;;8.33;100.00
51439;BME280;38816;51.142;-0.974;2023-05-23T04:55:05;101081.56;;;8.35;100.00
51439;BME280;38816;51.142;-0.974;2023-05-23T04:57:30;101081.72;;;8.38;100.00
51439;BME280;38816;51.142;-0.974;2023-05-23T04:59:56;101077.53;;;8.40;100.00
51439;BME280;38816;51.142;-0.974;2023-05-23T05:02:22;101081.22;;;8.47;100.00
51439;BME280;38816;51.142;-0.974;2023-05-23T05:04:47;101069.09;;;8.43;100.00
51439;BME280;38816;51.142;-0.974;2023-05-23T05:07:12;101077.13;;;8.52;100.00
51439;BME280;38816;51.142;-0.974;2023-05-23T05:09:38;101067.56;;;8.48;100.00
51439;BME280;38816;51.142;-0.974;2023-05-23T05:12:03;101081.78;;;8.62;100.00
51439;BME280;38816;51.142;-0.974;2023-05-23T05:14:29;101080.13;;;8.64;100.00
51439;BME280;38816;51.142;-0.974;2023-05-23T05:16:55;101082.88;;;8.69;100.00
51439;BME280;38816;51.142;-0.974;2023-05-23T05:19:22;101072.75;;;8.72;100.00
51439;BME280;38816;51.142;-0.974;2023-05-23T05:21:47;101092.84;;;8.83;100.00
51439;BME280;38816;51.142;-0.974;2023-05-23T05:24:13;101090.50;;;8.90;100.00
51439;BME280;38816;51.142;-0.974;2023-05-23T05:26:39;101091.78;;;9.01;100.00
51439;BME280;38816;51.142;-0.974;2023-05-23T05:29:05;101100.66;;;9.10;100.00
51439;BME280;38816;51.142;-0.974;2023-05-23T05:31:31;101099.09;;;9.14;100.00
51439;BME280;38816;51.142;-0.974;2023-05-23T05:33:57;101101.03;;;9.21;100.00
51439;BME280;38816;51.142;-0.974;2023-05-23T05:36:22;101092.59;;;9.24;100.00
51439;BME280;38816;51.142;-0.974;2023-05-23T05:38:48;101093.94;;;9.38;100.00
51439;BME280;38816;51.142;-0.974;2023-05-23T05:41:13;101103.50;;;9.42;100.00
51439;BME280;38816;51.142;-0.974;2023-05-23T05:43:39;101098.22;;;9.37;100.00
51439;BME280;38816;51.142;-0.974;2023-05-23T05:46:04;101108.69;;;9.44;100.00
51439;BME280;38816;51.142;-0.974;2023-05-23T05:48:29;101102.00;;;9.49;100.00
51439;BME280;38816;51.142;-0.974;2023-05-23T05:50:55;101100.47;;;9.54;100.00
51439;BME280;38816;51.142;-0.974;2023-05-23T05:53:21;101094.72;;;9.61;100.00
51439;BME280;38816;51.142;-0.974;2023-05-23T05:55:46;101083.88;;;9.68;100.00
51439;BME280;38816;51.142;-0.974;2023-05-23T05:58:11;101084.94;;;9.75;100.00
51439;BME280;38816;51.142;-0.974;2023-05-23T06:00:37;101110.44;;;9.96;100.00
51439;BME280;38816;51.142;-0.974;2023-05-23T06:03:09;101109.19;;;10.10;100.00
51439;BME280;38816;51.142;-0.974;2023-05-23T06:05:35;101105.97;;;10.17;100.00
51439;BME280;38816;51.142;-0.974;2023-05-23T06:08:02;101113.25;;;10.29;100.00
51439;BME280;38816;51.142;-0.974;2023-05-23T06:10:27;101104.03;;;10.35;100.00
51439;BME280;38816;51.142;-0.974;2023-05-23T06:12:53;101096.63;;;10.45;100.00
51439;BME280;38816;51.142;-0.974;2023-05-23T06:15:18;101112.31;;;10.54;100.00
51439;BME280;38816;51.142;-0.974;2023-05-23T06:17:43;101124.78;;;10.70;100.00
51439;BME280;38816;51.142;-0.974;2023-05-23T06:20:10;101125.91;;;10.78;100.00
51439;BME280;38816;51.142;-0.974;2023-05-23T06:22:36;101118.81;;;10.71;100.00
51439;BME280;38816;51.142;-0.974;2023-05-23T06:25:01;101117.91;;;10.69;100.00
51439;BME280;38816;51.142;-0.974;2023-05-23T06:27:27;101128.31;;;10.72;100.00
51439;BME280;38816;51.142;-0.974;2023-05-23T06:29:52;101118.66;;;10.65;100.00
51439;BME280;38816;51.142;-0.974;2023-05-23T06:32:18;101115.97;;;10.62;100.00
51439;BME280;38816;51.142;-0.974;2023-05-23T06:34:43;101124.53;;;10.61;100.00
51439;BME280;38816;51.142;-0.974;2023-05-23T06:37:09;101123.06;;;10.69;100.00
51439;BME280;38816;51.142;-0.974;2023-05-23T06:39:34;101121.59;;;10.77;100.00
51439;BME280;38816;51.142;-0.974;2023-05-23T06:41:59;101107.25;;;10.85;100.00
51439;BME280;38816;51.142;-0.974;2023-05-23T06:44:25;101107.53;;;10.95;100.00
51439;BME280;38816;51.142;-0.974;2023-05-23T06:46:50;101115.66;;;11.10;100.00
51439;BME280;38816;51.142;-0.974;2023-05-23T06:49:21;101123.06;;;11.29;100.00
51439;BME280;38816;51.142;-0.974;2023-05-23T06:51:47;101128.81;;;11.51;100.00
51439;BME280;38816;51.142;-0.974;2023-05-23T06:54:12;101126.81;;;11.74;100.00
51439;BME280;38816;51.142;-0.974;2023-05-23T06:56:38;101109.94;;;11.83;99.73
51439;BME280;38816;51.142;-0.974;2023-05-23T06:59:03;101099.03;;;11.94;99.09
51439;BME280;38816;51.142;-0.974;2023-05-23T07:01:29;101109.59;;;12.04;98.26
51439;BME280;38816;51.142;-0.974;2023-05-23T07:03:54;101116.50;;;12.05;96.95
51439;BME280;38816;51.142;-0.974;2023-05-23T07:06:20;101108.66;;;12.01;96.73
51439;BME280;38816;51.142;-0.974;2023-05-23T07:08:45;101103.28;;;11.93;96.44
51439;BME280;38816;51.142;-0.974;2023-05-23T07:11:11;101115.41;;;11.96;96.17
51439;BME280;38816;51.142;-0.974;2023-05-23T07:13:36;101116.38;;;12.01;95.98
51439;BME280;38816;51.142;-0.974;2023-05-23T07:16:02;101115.38;;;11.94;95.92
51439;BME280;38816;51.142;-0.974;2023-05-23T07:18:27;101129.34;;;12.04;95.19
51439;BME280;38816;51.142;-0.974;2023-05-23T07:20:53;101125.97;;;12.06;95.01
51439;BME280;38816;51.142;-0.974;2023-05-23T07:23:18;101129.38;;;12.05;94.66
51439;BME280;38816;51.142;-0.974;2023-05-23T07:25:44;101123.34;;;12.05;94.96
51439;BME280;38816;51.142;-0.974;2023-05-23T07:28:11;101135.72;;;12.20;94.80
51439;BME280;38816;51.142;-0.974;2023-05-23T07:30:36;101131.44;;;12.20;93.79
51439;BME280;38816;51.142;-0.974;2023-05-23T07:33:02;101140.31;;;12.31;91.97
51439;BME280;38816;51.142;-0.974;2023-05-23T07:35:27;101140.75;;;12.50;92.04
51439;BME280;38816;51.142;-0.974;2023-05-23T07:37:53;101150.72;;;12.72;90.43
51439;BME280;38816;51.142;-0.974;2023-05-23T07:40:20;101144.47;;;13.02;91.59
51439;BME280;38816;51.142;-0.974;2023-05-23T07:42:45;101132.25;;;13.34;89.33
51439;BME280;38816;51.142;-0.974;2023-05-23T07:45:11;101134.59;;;13.67;86.26
51439;BME280;38816;51.142;-0.974;2023-05-23T07:47:37;101133.25;;;13.89;84.53
51439;BME280;38816;51.142;-0.974;2023-05-23T07:50:03;101129.88;;;13.94;81.35
51439;BME280;38816;51.142;-0.974;2023-05-23T07:52:29;101128.03;;;13.86;82.73
51439;BME280;38816;51.142;-0.974;2023-05-23T07:54:55;101130.53;;;13.81;82.57
51439;BME280;38816;51.142;-0.974;2023-05-23T07:57:21;101137.16;;;13.67;82.95
51439;BME280;38816;51.142;-0.974;2023-05-23T07:59:46;101133.56;;;13.57;83.27
51439;BME280;38816;51.142;-0.974;2023-05-23T08:02:11;101137.00;;;13.58;82.72
51439;BME280;38816;51.142;-0.974;2023-05-23T08:04:37;101136.22;;;13.63;82.50
51439;BME280;38816;51.142;-0.974;2023-05-23T08:07:04;101144.19;;;13.74;80.96
51439;BME280;38816;51.142;-0.974;2023-05-23T08:09:30;101137.72;;;13.98;81.48
51439;BME280;38816;51.142;-0.974;2023-05-23T08:11:55;101134.63;;;14.20;80.29
51439;BME280;38816;51.142;-0.974;2023-05-23T08:14:20;101131.59;;;14.47;78.36
51439;BME280;38816;51.142;-0.974;2023-05-23T08:16:46;101129.31;;;14.67;77.62
51439;BME280;38816;51.142;-0.974;2023-05-23T08:19:12;101129.50;;;14.79;77.41
51439;BME280;38816;51.142;-0.974;2023-05-23T08:21:37;101120.00;;;14.81;75.13
51439;BME280;38816;51.142;-0.974;2023-05-23T08:24:03;101108.03;;;14.89;73.62
51439;BME280;38816;51.142;-0.974;2023-05-23T08:26:28;101122.81;;;14.97;71.35
51439;BME280;38816;51.142;-0.974;2023-05-23T08:28:59;101130.75;;;15.12;71.58
51439;BME280;38816;51.142;-0.974;2023-05-23T08:31:27;101124.97;;;15.31;68.57
51439;BME280;38816;51.142;-0.974;2023-05-23T08:33:52;101121.47;;;15.31;66.41
51439;BME280;38816;51.142;-0.974;2023-05-23T08:36:17;101118.09;;;15.36;68.20
51439;BME280;38816;51.142;-0.974;2023-05-23T08:38:43;101120.88;;;15.55;64.06
51439;BME280;38816;51.142;-0.974;2023-05-23T08:41:15;101118.47;;;15.70;64.12
51439;BME280;38816;51.142;-0.974;2023-05-23T08:43:43;101120.31;;;15.85;62.35
51439;BME280;38816;51.142;-0.974;2023-05-23T08:46:08;101121.25;;;15.90;60.50
51439;BME280;38816;51.142;-0.974;2023-05-23T08:48:37;101119.50;;;15.89;61.56
51439;BME280;38816;51.142;-0.974;2023-05-23T08:51:03;101112.50;;;15.79;60.59
51439;BME280;38816;51.142;-0.974;2023-05-23T08:53:28;101128.09;;;15.82;60.94
51439;BME280;38816;51.142;-0.974;2023-05-23T08:55:55;101113.53;;;15.98;61.69
51439;BME280;38816;51.142;-0.974;2023-05-23T08:58:27;101121.44;;;16.16;60.19
51439;BME280;38816;51.142;-0.974;2023-05-23T09:00:54;101107.75;;;16.35;58.92
51439;BME280;38816;51.142;-0.974;2023-05-23T09:03:19;101115.69;;;16.58;58.63
51439;BME280;38816;51.142;-0.974;2023-05-23T09:05:47;101112.28;;;16.68;59.07
51439;BME280;38816;51.142;-0.974;2023-05-23T09:08:12;101101.09;;;16.77;57.73
51439;BME280;38816;51.142;-0.974;2023-05-23T09:10:39;101113.28;;;16.84;55.84
51439;BME280;38816;51.142;-0.974;2023-05-23T09:13:04;101115.03;;;16.90;55.54
51439;BME280;38816;51.142;-0.974;2023-05-23T09:15:30;101112.41;;;16.88;56.43
51439;BME280;38816;51.142;-0.974;2023-05-23T09:17:59;101109.88;;;16.98;54.89
51439;BME280;38816;51.142;-0.974;2023-05-23T09:20:28;101117.69;;;17.14;55.25
51439;BME280;38816;51.142;-0.974;2023-05-23T09:22:55;101107.34;;;17.16;55.04
51439;BME280;38816;51.142;-0.974;2023-05-23T09:25:20;101115.13;;;17.16;54.52
51439;BME280;38816;51.142;-0.974;2023-05-23T09:27:46;101114.25;;;17.20;53.87
51439;BME280;38816;51.142;-0.974;2023-05-23T09:30:12;101104.72;;;17.19;53.64
51439;BME280;38816;51.142;-0.974;2023-05-23T09:32:38;101114.28;;;17.25;54.89
51439;BME280;38816;51.142;-0.974;2023-05-23T09:35:05;101107.38;;;17.31;54.36
51439;BME280;38816;51.142;-0.974;2023-05-23T09:37:43;101104.78;;;17.39;52.27
51439;BME280;38816;51.142;-0.974;2023-05-23T09:40:13;101116.03;;;17.42;53.65
51439;BME280;38816;51.142;-0.974;2023-05-23T09:42:42;101112.56;;;17.36;51.75
51439;BME280;38816;51.142;-0.974;2023-05-23T09:45:09;101126.44;;;17.30;52.36
51439;BME280;38816;51.142;-0.974;2023-05-23T09:47:35;101115.94;;;17.10;51.64
51439;BME280;38816;51.142;-0.974;2023-05-23T09:50:00;101118.47;;;16.90;53.75
51439;BME280;38816;51.142;-0.974;2023-05-23T09:52:26;101121.97;;;16.95;53.93
51439;BME280;38816;51.142;-0.974;2023-05-23T09:54:53;101133.25;;;16.99;52.19
51439;BME280;38816;51.142;-0.974;2023-05-23T09:57:21;101131.44;;;16.81;52.59
51439;BME280;38816;51.142;-0.974;2023-05-23T09:59:53;101136.63;;;16.80;52.04
51439;BME280;38816;51.142;-0.974;2023-05-23T10:02:35;101144.41;;;16.81;50.89
51439;BME280;38816;51.142;-0.974;2023-05-23T10:05:08;101156.56;;;16.91;52.10
51439;BME280;38816;51.142;-0.974;2023-05-23T10:07:35;101147.13;;;17.04;52.08
51439;BME280;38816;51.142;-0.974;2023-05-23T10:10:02;101150.69;;;17.34;52.89
51439;BME280;38816;51.142;-0.974;2023-05-23T10:15:04;101149.94;;;17.78;51.07
51439;BME280;38816;51.142;-0.974;2023-05-23T10:20:15;101139.56;;;17.91;48.11
51439;BME280;38816;51.142;-0.974;2023-05-23T10:22:41;101143.00;;;17.78;48.19
51439;BME280;38816;51.142;-0.974;2023-05-23T10:25:07;101147.31;;;17.68;48.46
51439;BME280;38816;51.142;-0.974;2023-05-23T10:27:38;101151.56;;;17.46;47.27
51439;BME280;38816;51.142;-0.974;2023-05-23T10:30:07;101150.66;;;17.28;47.58
51439;BME280;38816;51.142;-0.974;2023-05-23T10:32:34;101163.72;;;17.44;47.64
51439;BME280;38816;51.142;-0.974;2023-05-23T10:35:20;101155.13;;;17.71;43.98
51439;BME280;38816;51.142;-0.974;2023-05-23T10:42:55;101150.72;;;19.02;43.92
51439;BME280;38816;51.142;-0.974;2023-05-23T10:45:23;101153.19;;;19.30;43.06
51439;BME280;38816;51.142;-0.974;2023-05-23T10:47:50;101151.34;;;19.52;43.60
51439;BME280;38816;51.142;-0.974;2023-05-23T10:50:31;101149.41;;;19.84;44.52
51439;BME280;38816;51.142;-0.974;2023-05-23T10:53:04;101150.16;;;20.02;43.02
51439;BME280;38816;51.142;-0.974;2023-05-23T10:55:31;101150.13;;;20.03;41.88
51439;BME280;38816;51.142;-0.974;2023-05-23T10:58:16;101149.25;;;20.06;42.64
51439;BME280;38816;51.142;-0.974;2023-05-23T11:00:50;101145.75;;;20.10;41.58
51439;BME280;38816;51.142;-0.974;2023-05-23T11:03:17;101140.44;;;20.19;43.54
51439;BME280;38816;51.142;-0.974;2023-05-23T11:05:52;101147.19;;;20.41;45.25
51439;BME280;38816;51.142;-0.974;2023-05-23T11:08:18;101140.25;;;20.40;42.22
51439;BME280;38816;51.142;-0.974;2023-05-23T11:10:57;101141.19;;;20.30;39.04
51439;BME280;38816;51.142;-0.974;2023-05-23T11:13:23;101152.63;;;20.20;40.69
51439;BME280;38816;51.142;-0.974;2023-05-23T11:15:50;101156.03;;;20.25;40.04
51439;BME280;38816;51.142;-0.974;2023-05-23T11:18:21;101150.06;;;20.14;40.02
51439;BME280;38816;51.142;-0.974;2023-05-23T11:20:46;101155.19;;;20.21;42.08
51439;BME280;38816;51.142;-0.974;2023-05-23T11:23:13;101146.50;;;20.22;41.88
51439;BME280;38816;51.142;-0.974;2023-05-23T11:25:40;101170.00;;;20.21;40.26
51439;BME280;38816;51.142;-0.974;2023-05-23T11:28:08;101156.19;;;20.10;40.58
51439;BME280;38816;51.142;-0.974;2023-05-23T11:30:34;101153.66;;;19.99;39.79
51439;BME280;38816;51.142;-0.974;2023-05-23T11:33:05;101162.38;;;19.96;39.65
51439;BME280;38816;51.142;-0.974;2023-05-23T11:35:46;101161.53;;;19.96;40.64
51439;BME280;38816;51.142;-0.974;2023-05-23T11:38:14;101167.47;;;20.12;40.54
51439;BME280;38816;51.142;-0.974;2023-05-23T11:40:42;101165.56;;;20.32;38.73
51439;BME280;38816;51.142;-0.974;2023-05-23T11:43:09;101161.09;;;20.43;40.12
51439;BME280;38816;51.142;-0.974;2023-05-23T11:45:36;101154.97;;;20.54;40.78
51439;BME280;38816;51.142;-0.974;2023-05-23T11:48:06;101147.00;;;20.64;40.01
51439;BME280;38816;51.142;-0.974;2023-05-23T11:50:32;101141.78;;;20.61;38.75
51439;BME280;38816;51.142;-0.974;2023-05-23T11:52:58;101139.31;;;20.46;39.74
51439;BME280;38816;51.142;-0.974;2023-05-23T11:55:24;101149.72;;;20.52;39.11
51439;BME280;38816;51.142;-0.974;2023-05-23T11:57:49;101155.78;;;20.59;39.13
51439;BME280;38816;51.142;-0.974;2023-05-23T12:00:16;101160.91;;;20.68;38.66
51439;BME280;38816;51.142;-0.974;2023-05-23T12:02:43;101169.66;;;20.64;37.49
51439;BME280;38816;51.142;-0.974;2023-05-23T12:05:10;101154.91;;;20.58;37.20
51439;BME280;38816;51.142;-0.974;2023-05-23T12:07:39;101161.00;;;20.59;37.42
51439;BME280;38816;51.142;-0.974;2023-05-23T12:10:06;101159.38;;;20.39;38.34
51439;BME280;38816;51.142;-0.974;2023-05-23T12:12:32;101158.63;;;20.31;40.46
51439;BME280;38816;51.142;-0.974;2023-05-23T12:14:57;101164.69;;;20.33;39.56
51439;BME280;38816;51.142;-0.974;2023-05-23T12:17:23;101154.38;;;20.18;41.17
51439;BME280;38816;51.142;-0.974;2023-05-23T12:19:48;101158.00;;;20.02;41.82
51439;BME280;38816;51.142;-0.974;2023-05-23T12:22:14;101152.84;;;19.92;41.93
51439;BME280;38816;51.142;-0.974;2023-05-23T12:24:45;101144.19;;;19.84;39.79
51439;BME280;38816;51.142;-0.974;2023-05-23T12:27:11;101153.88;;;19.67;40.36
51439;BME280;38816;51.142;-0.974;2023-05-23T12:29:37;101158.31;;;19.45;43.72
51439;BME280;38816;51.142;-0.974;2023-05-23T12:32:05;101146.31;;;19.16;43.17
51439;BME280;38816;51.142;-0.974;2023-05-23T12:34:31;101153.28;;;19.10;46.98
51439;BME280;38816;51.142;-0.974;2023-05-23T12:36:57;101153.25;;;19.16;47.12
51439;BME280;38816;51.142;-0.974;2023-05-23T12:39:24;101163.59;;;19.34;45.65
51439;BME280;38816;51.142;-0.974;2023-05-23T12:41:51;101156.56;;;19.48;41.96
51439;BME280;38816;51.142;-0.974;2023-05-23T12:44:16;101147.84;;;19.59;41.74
51439;BME280;38816;51.142;-0.974;2023-05-23T12:46:42;101154.59;;;19.90;42.24
51439;BME280;38816;51.142;-0.974;2023-05-23T12:49:07;101147.47;;;20.11;41.56
51439;BME280;38816;51.142;-0.974;2023-05-23T12:51:33;101143.72;;;20.39;41.13
51439;BME280;38816;51.142;-0.974;2023-05-23T12:53:59;101143.66;;;20.48;42.35